Time;durP1;ratioP1;P1;durP2;ratioP2;P2;SDS_P1;SDS_P2;PMS_P1;PMS_P2;Temp;Humidity;BMP_temperature;BMP_pressure;BME280_temperature;BME280_humidity;BME280_pressure;Samples;Min_cycle;Max_cycle;Signal;HPM_P1;HPM_P2
2023/10/08 00:00:46;;;;;;;22.30;5.15;;;20.60;99.90;;;;;;10536004;28;20040;-31
2023/10/08 00:05:50;;;;;;;24.65;4.95;;;20.40;99.90;;;;;;10529633;28;20040;-41
2023/10/08 00:10:52;;;;;;;21.92;4.60;;;20.10;99.90;;;;;;10535121;28;20088;-39
2023/10/08 00:15:54;;;;;;;10.63;4.75;;;20.50;99.90;;;;;;10528744;28;20399;-34
2023/10/08 00:21:05;;;;;;;;;;;20.50;99.90;;;;;;10534051;28;20122;-33
2023/10/08 00:26:08;;;;;;;16.13;4.57;;;20.80;99.90;;;;;;10526384;28;19920;-30
2023/10/08 00:31:12;;;;;;;12.27;4.53;;;20.90;99.90;;;;;;10543712;28;20580;-37
2023/10/08 00:36:19;;;;;;;17.15;5.03;;;21.00;99.90;;;;;;10538814;28;20048;-39
2023/10/08 00:41:22;;;;;;;10.93;4.10;;;21.40;99.90;;;;;;10530761;28;20040;-32
2023/10/08 00:46:29;;;;;;;13.23;5.55;;;21.70;99.90;;;;;;10529365;28;20040;-33
2023/10/08 00:51:40;;;;;;;18.30;5.10;;;21.60;99.90;;;;;;10524356;28;20657;-32
2023/10/08 00:56:49;;;;;;;32.03;6.30;;;21.50;99.90;;;;;;10526933;28;20412;-33
2023/10/08 01:01:58;;;;;;;19.08;6.03;;;20.70;99.90;;;;;;10518447;28;20047;-38
2023/10/08 01:07:12;;;;;;;24.70;6.07;;;20.70;99.90;;;;;;10529249;28;20046;-31
2023/10/08 01:12:15;;;;;;;13.40;4.55;;;20.60;99.90;;;;;;10517675;28;20052;-39
2023/10/08 01:17:19;;;;;;;23.33;6.40;;;20.60;99.90;;;;;;10526673;28;20040;-34
2023/10/08 01:22:22;;;;;;;17.92;5.07;;;20.70;99.90;;;;;;10528296;28;20071;-37
2023/10/08 01:27:24;;;;;;;27.95;6.07;;;20.90;99.90;;;;;;10526427;28;20044;-32
2023/10/08 01:32:27;;;;;;;21.02;5.93;;;20.90;99.90;;;;;;10531743;28;20052;-36
2023/10/08 01:37:33;;;;;;;11.98;4.20;;;21.00;99.90;;;;;;10517822;28;20052;-37
2023/10/08 01:42:38;;;;;;;17.00;4.75;;;21.00;99.90;;;;;;10529134;28;20048;-30
2023/10/08 01:47:40;;;;;;;13.07;4.85;;;21.10;99.90;;;;;;10516491;28;20052;-34
2023/10/08 01:52:46;;;;;;;21.83;5.53;;;20.80;99.90;;;;;;10521010;28;20130;-40
2023/10/08 01:57:49;;;;;;;16.58;4.25;;;21.20;99.90;;;;;;10519030;28;20052;-43
2023/10/08 02:02:51;;;;;;;20.65;5.53;;;21.50;99.90;;;;;;10514720;28;20147;-30
2023/10/08 02:07:54;;;;;;;17.25;3.97;;;21.20;99.90;;;;;;10523115;28;20136;-35
2023/10/08 02:12:56;;;;;;;18.85;4.85;;;21.30;99.90;;;;;;10523501;28;20056;-34
2023/10/08 02:17:58;;;;;;;17.52;5.78;;;21.60;99.90;;;;;;10518718;28;20135;-36
2023/10/08 02:23:01;;;;;;;13.77;4.63;;;21.10;99.90;;;;;;10515488;28;20400;-32
2023/10/08 02:28:04;;;;;;;11.85;4.35;;;21.80;99.90;;;;;;10529055;28;20058;-31
2023/10/08 02:33:13;;;;;;;10.95;4.38;;;21.20;99.90;;;;;;10530586;28;20493;-32
2023/10/08 02:38:21;;;;;;;12.55;4.35;;;21.90;99.90;;;;;;10530581;28;20105;-41
2023/10/08 02:43:23;;;;;;;19.90;5.65;;;22.50;99.90;;;;;;10538575;28;20044;-30
2023/10/08 02:48:24;;;;;;;12.05;4.28;;;22.10;99.90;;;;;;10516040;28;20055;-34
2023/10/08 02:53:29;;;;;;;12.85;3.90;;;22.70;99.90;;;;;;10528299;28;20117;-35
2023/10/08 03:15:29;;;;;;;10.38;4.28;;;23.10;97.50;;;;;;10483463;27;1926547;-32
2023/10/08 03:20:38;;;;;;;10.27;3.75;;;23.10;97.40;;;;;;10565878;28;20044;-32
2023/10/08 03:25:42;;;;;;;8.43;4.22;;;23.20;97.00;;;;;;10556730;28;20123;-36
2023/10/08 03:30:51;;;;;;;7.60;3.40;;;23.20;96.90;;;;;;10553762;28;20048;-35
2023/10/08 03:35:54;;;;;;;7.88;3.50;;;23.20;96.90;;;;;;10555207;28;20472;-31
2023/10/08 03:41:03;;;;;;;9.30;3.92;;;23.30;96.60;;;;;;10554817;28;20516;-33
2023/10/08 03:46:14;;;;;;;7.47;3.63;;;23.10;97.00;;;;;;10558125;28;20044;-31
2023/10/08 03:51:19;;;;;;;6.72;3.10;;;23.30;96.70;;;;;;10562924;28;20044;-32
2023/10/08 03:56:21;;;;;;;8.95;3.75;;;23.40;96.10;;;;;;10551592;28;20046;-35
2023/10/08 04:01:24;;;;;;;8.95;3.78;;;23.30;96.30;;;;;;10551756;28;20171;-32
2023/10/08 04:06:38;;;;;;;8.00;3.17;;;23.40;96.00;;;;;;10558741;28;20050;-44
2023/10/08 04:11:51;;;;;;;11.20;4.35;;;23.40;95.90;;;;;;10559551;28;20051;-39
2023/10/08 04:16:54;;;;;;;6.30;3.30;;;23.40;95.80;;;;;;10558882;28;20052;-39
2023/10/08 04:21:57;;;;;;;16.30;4.15;;;23.40;95.90;;;;;;10551445;28;20472;-33
2023/10/08 04:26:59;;;;;;;5.85;3.35;;;23.50;95.60;;;;;;10520844;28;20093;-41
2023/10/08 04:32:07;;;;;;;8.45;3.40;;;23.40;95.60;;;;;;10526651;28;20051;-35
2023/10/08 04:37:12;;;;;;;8.18;3.65;;;23.50;95.60;;;;;;10529560;28;20040;-35
2023/10/08 04:42:18;;;;;;;8.55;4.25;;;23.50;95.60;;;;;;10517620;28;20607;-34
2023/10/08 04:47:31;;;;;;;9.48;3.80;;;23.50;95.50;;;;;;10522490;28;20058;-32
2023/10/08 04:52:45;;;;;;;6.78;3.22;;;23.50;95.60;;;;;;10523455;28;20048;-35
2023/10/08 04:57:49;;;;;;;7.20;3.08;;;23.50;95.50;;;;;;10523424;28;20044;-32
2023/10/08 05:02:54;;;;;;;8.30;2.85;;;23.50;95.40;;;;;;10521225;28;20083;-34
2023/10/08 05:08:03;;;;;;;5.68;3.08;;;23.50;95.30;;;;;;10522968;28;20043;-37
2023/10/08 05:13:16;;;;;;;6.63;3.13;;;23.50;95.40;;;;;;10524764;28;20440;-29
2023/10/08 05:18:37;;;;;;;7.30;2.67;;;23.50;95.30;;;;;;10515705;28;20683;-31
2023/10/08 05:24:08;;;;;;;5.65;2.58;;;23.50;95.30;;;;;;10523620;28;20131;-34
2023/10/08 05:34:42;;;;;;;7.32;3.25;;;23.50;95.20;;;;;;10515780;28;20052;-33
2023/10/08 05:39:54;;;;;;;7.32;2.75;;;23.50;95.10;;;;;;10518049;28;20135;-42
2023/10/08 05:45:14;;;;;;;6.78;3.00;;;23.50;95.10;;;;;;10522887;28;20070;-43
2023/10/08 05:50:38;;;;;;;8.85;3.03;;;23.50;95.00;;;;;;10516600;28;20139;-31
2023/10/08 05:55:47;;;;;;;9.45;3.22;;;23.40;95.30;;;;;;10525697;28;20052;-33
2023/10/08 06:01:09;;;;;;;9.10;3.20;;;23.50;95.00;;;;;;10523389;28;20568;-44
2023/10/08 06:06:36;;;;;;;9.07;2.60;;;23.40;95.00;;;;;;10526183;28;20472;-39
2023/10/08 06:11:56;;;;;;;6.45;2.50;;;23.40;95.00;;;;;;10517487;28;20580;-31
2023/10/08 06:17:13;;;;;;;5.35;2.88;;;23.50;94.90;;;;;;10519355;28;20040;-32
2023/10/08 06:22:16;;;;;;;10.05;3.10;;;23.40;94.80;;;;;;10517863;28;20456;-39
2023/10/08 06:27:19;;;;;;;6.22;2.75;;;23.40;94.60;;;;;;10518650;28;20048;-37
2023/10/08 06:32:22;;;;;;;8.25;3.28;;;23.40;94.70;;;;;;10510141;28;20064;-41
2023/10/08 06:37:25;;;;;;;6.85;2.85;;;23.40;94.60;;;;;;10505802;28;20051;-32
2023/10/08 06:42:29;;;;;;;6.38;2.80;;;23.50;94.60;;;;;;10506257;28;20054;-40
2023/10/08 06:47:32;;;;;;;6.93;2.92;;;23.40;95.30;;;;;;10504798;28;20047;-38
2023/10/08 06:52:36;;;;;;;7.20;3.10;;;23.50;94.80;;;;;;10518113;28;20102;-36
2023/10/08 06:57:38;;;;;;;8.32;3.17;;;23.50;94.70;;;;;;10515774;28;20036;-31
2023/10/08 07:02:40;;;;;;;;;;;23.40;94.60;;;;;;10512561;28;20338;-39
2023/10/08 07:07:44;;;;;;;5.55;2.50;;;23.40;94.50;;;;;;10517574;28;19928;-34
2023/10/08 07:12:46;;;;;;;6.70;3.28;;;23.50;94.50;;;;;;10519602;28;20072;-28
2023/10/08 07:17:51;;;;;;;7.07;2.85;;;23.40;94.50;;;;;;10519337;28;20052;-35
2023/10/08 07:22:54;;;;;;;8.85;2.85;;;23.40;94.30;;;;;;10515299;28;20481;-31
2023/10/08 07:27:56;;;;;;;8.38;2.83;;;23.40;94.30;;;;;;10514399;28;20417;-37
2023/10/08 07:32:59;;;;;;;9.13;2.88;;;23.50;94.20;;;;;;10507596;28;20055;-33
2023/10/08 07:38:09;;;;;;;6.50;2.88;;;23.40;94.60;;;;;;10517894;28;20052;-40
2023/10/08 07:43:12;;;;;;;9.23;2.67;;;23.40;94.50;;;;;;10512548;28;20627;-30
2023/10/08 07:48:15;;;;;;;6.00;2.15;;;23.40;94.40;;;;;;10517022;28;20044;-35
2023/10/08 07:53:18;;;;;;;8.18;2.92;;;23.40;94.60;;;;;;10526438;28;20048;-32
2023/10/08 07:58:20;;;;;;;5.22;2.47;;;23.40;94.10;;;;;;10514345;28;20195;-34
2023/10/08 08:03:22;;;;;;;7.07;2.20;;;23.40;94.50;;;;;;10524233;28;20040;-35
2023/10/08 08:08:27;;;;;;;13.23;3.20;;;23.40;94.40;;;;;;10522973;28;21452;-34
2023/10/08 08:13:28;;;;;;;7.78;2.70;;;23.40;93.90;;;;;;10524998;28;20147;-38
2023/10/08 08:18:32;;;;;;;8.50;2.97;;;23.50;94.00;;;;;;10526991;28;20113;-30
2023/10/08 08:23:36;;;;;;;7.78;2.40;;;23.50;93.80;;;;;;10526491;28;20048;-34
2023/10/08 08:28:39;;;;;;;5.18;2.15;;;23.50;93.80;;;;;;10512605;28;20052;-36
2023/10/08 08:39:08;;;;;;;9.85;2.50;;;23.60;93.40;;;;;;10512934;28;20418;-39
2023/10/08 08:44:10;;;;;;;6.70;2.20;;;23.50;93.40;;;;;;10520843;28;20047;-34
2023/10/08 08:49:12;;;;;;;8.18;2.67;;;23.50;93.30;;;;;;10520149;28;20535;-43
2023/10/08 08:54:16;;;;;;;10.75;2.50;;;23.50;93.20;;;;;;10521392;28;20059;-37
2023/10/08 08:59:20;;;;;;;4.40;1.77;;;23.50;93.00;;;;;;10517368;28;20044;-35
2023/10/08 09:04:29;;;;;;;8.13;2.55;;;23.30;93.80;;;;;;10519649;28;21178;-35
2023/10/08 09:09:39;;;;;;;4.40;2.42;;;23.50;93.10;;;;;;10514211;28;20052;-34
2023/10/08 09:14:44;;;;;;;6.28;2.35;;;23.60;92.80;;;;;;10517846;28;20477;-40
2023/10/08 09:19:47;;;;;;;5.47;2.17;;;23.50;92.80;;;;;;10517828;28;20068;-33
2023/10/08 09:24:52;;;;;;;8.65;2.42;;;23.70;92.60;;;;;;10499614;28;20048;-40
2023/10/08 09:29:56;;;;;;;6.70;2.10;;;23.50;93.00;;;;;;10516518;28;20890;-37
2023/10/08 09:34:58;;;;;;;8.52;2.13;;;23.40;93.10;;;;;;10516314;28;20160;-41
2023/10/08 09:40:07;;;;;;;10.48;2.53;;;23.60;92.40;;;;;;10520526;28;20545;-40
2023/10/08 09:45:11;;;;;;;9.85;2.47;;;23.60;92.60;;;;;;10526462;28;20059;-31
2023/10/08 09:50:15;;;;;;;13.63;2.90;;;23.70;92.10;;;;;;10527118;28;20136;-36
2023/10/08 09:55:20;;;;;;;10.77;2.65;;;23.80;91.70;;;;;;10513850;28;20147;-38
2023/10/08 10:00:30;;;;;;;10.48;2.22;;;23.70;91.90;;;;;;10515109;28;20056;-35
2023/10/08 10:05:35;;;;;;;7.53;1.75;;;23.70;91.80;;;;;;10521269;28;20058;-37
2023/10/08 10:10:39;;;;;;;5.90;2.22;;;23.90;91.60;;;;;;10504965;28;20051;-31
2023/10/08 10:15:44;;;;;;;3.78;1.95;;;23.90;91.20;;;;;;10519988;28;20054;-40
2023/10/08 10:20:46;;;;;;;4.80;1.98;;;23.90;91.10;;;;;;10515004;28;20125;-41
2023/10/08 10:25:51;;;;;;;8.27;1.50;;;23.90;91.00;;;;;;10514946;28;20051;-36
2023/10/08 10:30:53;;;;;;;4.55;1.75;;;23.90;91.10;;;;;;10518398;28;20071;-40
2023/10/08 10:35:55;;;;;;;5.47;2.20;;;24.00;91.10;;;;;;10523806;28;20511;-44
2023/10/08 10:40:58;;;;;;;6.05;2.22;;;24.00;91.60;;;;;;10512878;28;20088;-37
2023/10/08 10:46:20;;;;;;;6.53;2.20;;;24.00;92.00;;;;;;10515462;28;20044;-32
2023/10/08 10:51:25;;;;;;;7.93;2.47;;;24.10;92.10;;;;;;10515076;28;20454;-37
2023/10/08 10:56:30;;;;;;;12.05;2.28;;;24.10;92.40;;;;;;10531962;28;20542;-38
2023/10/08 11:01:44;;;;;;;11.75;2.55;;;24.10;92.40;;;;;;10519852;28;20052;-31
2023/10/08 11:06:48;;;;;;;10.55;2.60;;;24.10;92.30;;;;;;10515169;28;20050;-32
2023/10/08 11:11:54;;;;;;;12.57;2.90;;;24.10;92.40;;;;;;10511850;28;20401;-44
2023/10/08 11:16:56;;;;;;;9.63;2.65;;;24.10;92.10;;;;;;10509061;28;20048;-37
2023/10/08 11:21:59;;;;;;;;;;;24.30;91.60;;;;;;10524975;28;20539;-32
2023/10/08 11:27:16;;;;;;;7.18;2.20;;;24.30;91.20;;;;;;10513893;28;19920;-32
2023/10/08 11:32:19;;;;;;;6.65;2.53;;;24.30;91.00;;;;;;10514542;28;20446;-35
2023/10/08 11:37:33;;;;;;;6.03;2.53;;;24.40;90.80;;;;;;10514810;28;20043;-32
2023/10/08 11:42:43;;;;;;;11.75;2.25;;;24.50;90.70;;;;;;10526962;28;20464;-33
2023/10/08 11:47:48;;;;;;;11.95;2.45;;;24.50;90.50;;;;;;10519249;28;20047;-31
2023/10/08 11:52:50;;;;;;;8.38;2.33;;;24.50;90.50;;;;;;10536448;28;20040;-32
2023/10/08 11:57:53;;;;;;;8.48;1.98;;;24.50;90.50;;;;;;10521094;28;20070;-28
2023/10/08 12:02:55;;;;;;;9.93;2.40;;;24.50;90.50;;;;;;10525639;28;20546;-36
2023/10/08 12:07:57;;;;;;;5.50;2.13;;;24.50;90.40;;;;;;10525388;28;20052;-37
2023/10/08 12:13:02;;;;;;;4.63;2.40;;;24.60;90.40;;;;;;10529593;28;20078;-31
2023/10/08 12:18:13;;;;;;;8.25;2.33;;;24.60;90.30;;;;;;10520282;28;20048;-50
2023/10/08 12:23:24;;;;;;;8.60;2.38;;;24.60;90.40;;;;;;10507920;28;20052;-39
2023/10/08 12:28:28;;;;;;;8.82;2.47;;;24.70;90.00;;;;;;10527110;28;20561;-33
2023/10/08 12:33:31;;;;;;;4.50;2.75;;;24.70;89.60;;;;;;10540810;28;20048;-40
2023/10/08 12:38:33;;;;;;;6.15;2.60;;;24.80;89.30;;;;;;10540137;28;20052;-32
2023/10/08 12:43:38;;;;;;;6.95;3.10;;;24.90;88.90;;;;;;10521410;28;20536;-34
2023/10/08 12:48:40;;;;;;;5.93;2.63;;;25.00;89.40;;;;;;10519635;28;20048;-40
2023/10/08 12:53:50;;;;;;;5.00;2.05;;;24.90;88.90;;;;;;10516639;28;20051;-45
2023/10/08 12:58:53;;;;;;;4.80;2.45;;;25.00;88.50;;;;;;10525769;28;20051;-33
2023/10/08 13:04:00;;;;;;;8.98;3.08;;;25.00;88.10;;;;;;10522543;28;20056;-27
2023/10/08 13:09:09;;;;;;;5.15;2.58;;;25.00;88.50;;;;;;10535262;28;20098;-34
2023/10/08 13:14:12;;;;;;;7.05;3.30;;;25.00;88.40;;;;;;10521577;28;20064;-34
2023/10/08 13:19:15;;;;;;;6.90;2.83;;;25.10;88.00;;;;;;10520567;28;20044;-40
2023/10/08 13:24:18;;;;;;;6.63;3.22;;;25.10;88.40;;;;;;10526729;28;20149;-35
2023/10/08 13:29:21;;;;;;;9.65;3.70;;;25.00;88.90;;;;;;10525600;28;20048;-34
2023/10/08 13:34:23;;;;;;;10.75;4.20;;;25.10;88.90;;;;;;10530471;28;20048;-35
2023/10/08 13:39:27;;;;;;;11.07;4.72;;;25.10;88.50;;;;;;10518316;28;20129;-34
2023/10/08 13:44:30;;;;;;;13.00;6.07;;;25.20;88.30;;;;;;10523143;28;20055;-35
2023/10/08 13:49:33;;;;;;;8.32;4.60;;;25.20;90.10;;;;;;10511990;28;20047;-37
2023/10/08 13:54:39;;;;;;;20.65;8.57;;;25.30;88.00;;;;;;10526499;28;20074;-40
2023/10/08 13:59:42;;;;;;;11.20;5.38;;;25.60;87.60;;;;;;10521386;28;20055;-37
2023/10/08 14:04:45;;;;;;;27.40;8.65;;;25.70;86.10;;;;;;10520239;28;20056;-33
2023/10/08 14:09:47;;;;;;;11.80;5.18;;;26.00;86.50;;;;;;10524606;28;20104;-37
2023/10/08 14:14:50;;;;;;;11.52;4.85;;;26.20;85.00;;;;;;10510837;28;20113;-37
2023/10/08 14:19:59;;;;;;;15.18;5.82;;;25.90;85.40;;;;;;10515075;28;20044;-35
2023/10/08 14:25:02;;;;;;;12.55;5.05;;;26.00;86.00;;;;;;10517503;28;20052;-38
2023/10/08 14:30:08;;;;;;;11.95;5.40;;;26.30;82.90;;;;;;10504449;28;20853;-34
2023/10/08 14:45:54;;;;;;;12.48;4.15;;;26.30;83.30;;;;;;10511322;28;20492;-40
2023/10/08 14:50:56;;;;;;;8.40;4.68;;;26.40;86.00;;;;;;10517409;28;20422;-36
2023/10/08 14:55:58;;;;;;;;;;;26.30;83.90;;;;;;10518020;28;20127;-37
2023/10/08 15:01:02;;;;;;;8.70;4.53;;;26.20;83.60;;;;;;10512041;28;20066;-33
2023/10/08 15:06:04;;;;;;;11.95;5.50;;;26.30;84.00;;;;;;10516955;28;20086;-41
2023/10/08 15:11:06;;;;;;;9.70;4.15;;;26.20;84.30;;;;;;10507977;28;20101;-32
2023/10/08 15:16:09;;;;;;;10.90;4.65;;;26.30;84.10;;;;;;10517051;28;20048;-37
2023/10/08 15:21:11;;;;;;;9.88;4.80;;;26.20;84.90;;;;;;10516711;28;20132;-33
2023/10/08 15:26:13;;;;;;;9.77;4.88;;;26.30;85.20;;;;;;10516469;28;20051;-38
2023/10/08 15:31:16;;;;;;;7.03;4.53;;;26.30;85.30;;;;;;10508082;28;20056;-35
2023/10/08 15:36:18;;;;;;;13.85;4.82;;;26.30;85.20;;;;;;10505356;28;20139;-34
2023/10/08 15:41:20;;;;;;;13.02;4.93;;;26.20;85.50;;;;;;10516308;28;20048;-33
2023/10/08 15:46:23;;;;;;;10.70;4.65;;;26.30;86.10;;;;;;10519367;28;20056;-37
2023/10/08 15:51:29;;;;;;;12.10;4.97;;;26.20;85.60;;;;;;10509639;28;20527;-31
2023/10/08 15:56:31;;;;;;;7.70;4.30;;;26.30;85.80;;;;;;10516333;28;20534;-34
2023/10/08 16:01:34;;;;;;;9.55;4.15;;;26.30;85.30;;;;;;10520414;28;20048;-36
2023/10/08 16:06:36;;;;;;;8.57;4.78;;;26.30;85.30;;;;;;10511815;28;20095;-32
2023/10/08 16:11:38;;;;;;;8.95;4.18;;;26.30;85.30;;;;;;10515719;28;20129;-38
2023/10/08 16:16:41;;;;;;;14.57;4.70;;;26.20;85.40;;;;;;10519029;28;20048;-40
2023/10/08 16:21:44;;;;;;;13.32;4.10;;;26.10;85.90;;;;;;10518788;28;20056;-36
2023/10/08 16:26:46;;;;;;;9.00;4.90;;;26.10;86.20;;;;;;10523981;28;20138;-34
2023/10/08 16:31:49;;;;;;;;;;;26.10;86.60;;;;;;10513867;28;20102;-36
2023/10/08 16:36:52;;;;;;;17.00;6.20;;;26.10;87.00;;;;;;10526198;28;20317;-37
2023/10/08 16:41:54;;;;;;;17.13;6.95;;;26.00;88.00;;;;;;10516466;28;20044;-34
2023/10/08 16:46:57;;;;;;;18.92;7.05;;;26.00;88.40;;;;;;10521759;28;20455;-40
2023/10/08 16:51:59;;;;;;;19.63;6.85;;;26.00;88.50;;;;;;10522335;28;20413;-32
2023/10/08 16:57:04;;;;;;;22.00;6.65;;;25.90;88.80;;;;;;10519689;28;20154;-38
2023/10/08 17:02:08;;;;;;;13.60;5.90;;;25.90;89.30;;;;;;10515621;28;20043;-32
2023/10/08 17:07:10;;;;;;;17.27;6.45;;;25.80;89.50;;;;;;10528480;28;20485;-43
2023/10/08 17:12:14;;;;;;;20.73;6.82;;;25.80;89.90;;;;;;10521214;28;20740;-40
2023/10/08 17:17:19;;;;;;;16.17;5.75;;;25.80;90.10;;;;;;10520208;28;20052;-34
2023/10/08 17:22:20;;;;;;;14.77;5.82;;;25.80;90.10;;;;;;10523641;28;20051;-32
2023/10/08 17:27:22;;;;;;;;;;;25.80;90.10;;;;;;10524057;28;20080;-34
2023/10/08 17:32:25;;;;;;;13.00;4.78;;;25.70;90.30;;;;;;10523961;28;19967;-38
2023/10/08 17:37:27;;;;;;;12.50;4.65;;;25.70;90.40;;;;;;10530018;28;20477;-34
2023/10/08 17:42:29;;;;;;;;;;;25.70;90.50;;;;;;10529986;28;20072;-36
2023/10/08 17:47:33;;;;;;;10.13;3.95;;;25.70;90.50;;;;;;10519149;28;19927;-33
2023/10/08 17:52:35;;;;;;;13.02;4.05;;;25.60;90.40;;;;;;10520567;28;20415;-35
2023/10/08 17:57:38;;;;;;;12.88;4.20;;;25.60;90.50;;;;;;10525784;28;20058;-37
2023/10/08 18:02:41;;;;;;;9.60;3.72;;;25.60;90.50;;;;;;10521457;28;20147;-38
2023/10/08 18:07:45;;;;;;;10.30;4.03;;;25.60;90.50;;;;;;10520886;28;20049;-34
2023/10/08 18:12:47;;;;;;;7.10;3.60;;;25.50;90.60;;;;;;10523345;28;20048;-38
2023/10/08 18:17:51;;;;;;;13.32;4.60;;;25.50;90.60;;;;;;10523540;28;20059;-35
2023/10/08 18:22:53;;;;;;;8.35;4.18;;;25.50;90.70;;;;;;10528232;28;20048;-36
2023/10/08 18:27:55;;;;;;;8.55;3.50;;;25.50;90.80;;;;;;10520908;28;20056;-36
2023/10/08 18:32:59;;;;;;;;;;;25.50;90.80;;;;;;10518546;28;20055;-32
2023/10/08 18:38:01;;;;;;;9.05;3.47;;;25.40;90.80;;;;;;10524731;28;20023;-31
2023/10/08 18:43:05;;;;;;;10.10;3.35;;;25.40;90.90;;;;;;10513740;28;20526;-35
2023/10/08 18:48:09;;;;;;;7.70;4.00;;;25.40;91.00;;;;;;10515968;28;20111;-38
2023/10/08 18:53:11;;;;;;;6.65;3.38;;;25.40;90.90;;;;;;10538906;28;20122;-33
2023/10/08 18:58:13;;;;;;;13.38;3.70;;;25.40;90.90;;;;;;10523781;28;20143;-37
2023/10/08 19:03:17;;;;;;;9.00;3.28;;;25.40;90.90;;;;;;10513206;28;20056;-39
2023/10/08 19:08:20;;;;;;;10.43;3.13;;;25.30;90.90;;;;;;10524254;28;20519;-32
2023/10/08 19:13:23;;;;;;;5.93;3.40;;;25.30;90.90;;;;;;10518929;28;20056;-35
2023/10/08 19:18:27;;;;;;;8.55;3.22;;;25.30;91.00;;;;;;10521326;28;20439;-41
2023/10/08 19:23:29;;;;;;;8.82;3.00;;;25.30;90.80;;;;;;10520576;28;20044;-36
2023/10/08 19:28:32;;;;;;;5.15;2.60;;;25.30;90.90;;;;;;10508531;28;20123;-33
2023/10/08 19:33:35;;;;;;;7.55;3.55;;;25.30;91.00;;;;;;10506915;28;20055;-32
2023/10/08 19:38:37;;;;;;;6.22;3.15;;;25.20;90.90;;;;;;10523544;28;20052;-35
2023/10/08 19:43:38;;;;;;;;;;;25.20;91.00;;;;;;10516790;28;20101;-32
2023/10/08 19:48:42;;;;;;;6.38;3.00;;;25.20;91.10;;;;;;10520928;28;20006;-38
2023/10/08 19:53:48;;;;;;;5.35;2.78;;;25.10;91.00;;;;;;10523107;28;20048;-35
2023/10/08 19:58:53;;;;;;;6.18;2.72;;;25.00;91.10;;;;;;10522800;28;20076;-42
2023/10/08 20:03:56;;;;;;;7.03;3.17;;;25.00;91.10;;;;;;10527081;28;20435;-37
2023/10/08 20:08:58;;;;;;;8.43;2.67;;;25.00;91.10;;;;;;10530867;28;20040;-33
2023/10/08 20:14:00;;;;;;;5.28;2.70;;;25.00;90.70;;;;;;10528402;28;20678;-31
2023/10/08 20:19:05;;;;;;;4.20;2.58;;;24.90;91.50;;;;;;10530912;28;20435;-34
2023/10/08 20:24:07;;;;;;;8.05;3.70;;;24.70;91.60;;;;;;10530163;28;20056;-32
2023/10/08 20:29:09;;;;;;;7.68;2.83;;;24.30;92.60;;;;;;10518835;28;20094;-33
2023/10/08 20:34:12;;;;;;;8.15;3.65;;;23.90;94.40;;;;;;10523381;28;20079;-35
2023/10/08 20:39:18;;;;;;;10.02;3.13;;;24.30;92.70;;;;;;10524366;28;20098;-37
2023/10/08 20:44:21;;;;;;;5.57;2.75;;;24.20;93.20;;;;;;10520370;28;20079;-38
2023/10/08 20:49:24;;;;;;;8.18;3.17;;;24.00;93.90;;;;;;10519525;28;20063;-35
2023/10/08 20:54:28;;;;;;;4.63;2.22;;;24.20;93.20;;;;;;10514406;28;20055;-37
2023/10/08 20:59:30;;;;;;;7.45;2.85;;;24.40;92.40;;;;;;10533942;28;20047;-32
2023/10/08 21:04:33;;;;;;;;;;;24.20;92.90;;;;;;10525295;28;20089;-37
2023/10/08 21:09:37;;;;;;;3.28;1.95;;;24.00;93.50;;;;;;10519367;28;20011;-38
2023/10/08 21:14:38;;;;;;;5.90;3.22;;;24.40;92.10;;;;;;10520897;28;20051;-40
2023/10/08 21:19:41;;;;;;;;;;;23.90;92.20;;;;;;10514527;28;20366;-36
2023/10/08 21:24:44;;;;;;;3.50;2.28;;;23.10;95.10;;;;;;10520802;28;20010;-38
2023/10/08 21:29:46;;;;;;;12.85;4.25;;;23.80;94.10;;;;;;10517346;28;20049;-34
2023/10/08 21:34:51;;;;;;;18.13;5.07;;;23.70;94.00;;;;;;10520780;28;20150;-32
2023/10/08 21:39:52;;;;;;;9.88;4.32;;;23.20;93.70;;;;;;10512672;28;20073;-38
2023/10/08 21:44:54;;;;;;;3.60;2.22;;;23.00;95.10;;;;;;10501779;28;20109;-38
2023/10/08 21:49:57;;;;;;;14.88;5.47;;;22.30;98.80;;;;;;10511900;28;20054;-32
2023/10/08 21:54:59;;;;;;;3.78;2.05;;;21.00;99.90;;;;;;10513581;28;20063;-44
2023/10/08 22:00:01;;;;;;;6.20;2.45;;;22.30;99.90;;;;;;10516579;28;20043;-36
2023/10/08 22:05:05;;;;;;;4.03;1.98;;;23.10;97.50;;;;;;10516063;28;20045;-36
2023/10/08 22:10:11;;;;;;;7.32;3.17;;;23.50;95.70;;;;;;10510716;28;20123;-32
2023/10/08 22:15:16;;;;;;;4.05;2.40;;;23.50;94.60;;;;;;10518392;28;20113;-39
2023/10/08 22:25:37;;;;;;;3.63;2.08;;;23.30;95.80;;;;;;10520861;28;20089;-32
2023/10/08 22:30:41;;;;;;;7.82;2.28;;;22.90;97.20;;;;;;10519240;28;20040;-36
2023/10/08 22:35:44;;;;;;;2.95;1.77;;;23.20;95.80;;;;;;10521424;28;20160;-37
2023/10/08 22:41:18;;;;;;;4.05;2.10;;;23.20;95.60;;;;;;10518437;28;20067;-39
2023/10/08 22:46:20;;;;;;;8.75;2.55;;;22.50;97.80;;;;;;10518172;28;20043;-36
2023/10/08 22:51:25;;;;;;;6.63;2.90;;;22.10;99.30;;;;;;10511055;28;20048;-34
2023/10/08 22:56:30;;;;;;;8.45;3.88;;;22.20;97.70;;;;;;10520252;28;20080;-33
2023/10/08 23:01:32;;;;;;;8.63;3.22;;;20.80;99.90;;;;;;10525868;28;20060;-37
2023/10/08 23:06:35;;;;;;;4.93;2.58;;;20.20;99.90;;;;;;10509894;28;20044;-42
2023/10/08 23:11:40;;;;;;;5.50;2.60;;;21.00;99.90;;;;;;10524614;28;20133;-38
2023/10/08 23:16:42;;;;;;;9.20;3.60;;;21.10;99.90;;;;;;10528063;28;20433;-32
2023/10/08 23:21:45;;;;;;;10.43;3.63;;;20.60;99.90;;;;;;10516820;28;20147;-36
2023/10/08 23:26:47;;;;;;;11.02;3.63;;;19.80;99.90;;;;;;10514879;28;20488;-41
2023/10/08 23:31:49;;;;;;;17.17;4.07;;;20.30;99.90;;;;;;10549089;28;20579;-36
2023/10/08 23:36:55;;;;;;;13.65;4.25;;;19.30;99.90;;;;;;10548261;28;20055;-34
2023/10/08 23:42:01;;;;;;;13.88;4.20;;;20.00;99.90;;;;;;10548425;28;20074;-38
2023/10/08 23:47:04;;;;;;;10.10;3.92;;;20.20;99.90;;;;;;10523866;28;20044;-37
2023/10/08 23:52:08;;;;;;;14.18;4.43;;;20.00;99.90;;;;;;10531470;28;20131;-35
2023/10/08 23:57:17;;;;;;;8.70;2.55;;;20.80;99.90;;;;;;10516651;28;20058;-33
